Time;durP1;ratioP1;P1;durP2;ratioP2;P2;SDS_P1;SDS_P2;PMS_P1;PMS_P2;Temp;Humidity;BMP_temperature;BMP_pressure;BME280_temperature;BME280_humidity;BME280_pressure;Samples;Min_cycle;Max_cycle;Signal;HPM_P1;HPM_P2
2023/11/02 00:07:37;;;;;;;22.50;13.90;;;;;;;8.96;100.00;99332.41;224002;1264;138945;-82
2023/11/02 00:13:29;;;;;;;;;;;;;;;;;;;;;
2023/11/02 00:19:32;;;;;;;21.80;12.60;;;;;;;8.87;100.00;99332.56;223350;1265;139801;-82
2023/11/02 00:25:33;;;;;;;20.20;11.10;;;;;;;8.85;100.00;99334.84;223980;1264;138780;-83
2023/11/02 00:31:27;;;;;;;22.40;12.70;;;;;;;8.83;100.00;99329.05;223396;1264;139825;-83
2023/11/02 00:37:29;;;;;;;21.30;11.00;;;;;;;8.78;100.00;99322.99;223926;1264;138377;-82
2023/11/02 00:43:31;;;;;;;21.60;11.80;;;;;;;8.74;100.00;99321.68;224051;1264;138821;-82
2023/11/02 00:49:56;;;;;;;20.50;12.40;;;;;;;8.68;100.00;99312.34;223452;1264;140487;-83
2023/11/02 00:55:45;;;;;;;23.10;13.40;;;;;;;8.62;100.00;99309.83;223859;1264;138465;-83
2023/11/02 01:01:52;;;;;;;23.30;13.80;;;;;;;8.52;100.00;99304.25;223430;1264;139436;-82
2023/11/02 01:07:53;;;;;;;25.00;14.40;;;;;;;8.43;100.00;99300.02;224005;1264;139001;-83
2023/11/02 01:13:56;;;;;;;27.00;15.60;;;;;;;8.35;100.00;99294.20;224015;1264;138442;-83
2023/11/02 01:19:42;;;;;;;26.50;15.70;;;;;;;8.27;100.00;99302.80;223387;1265;139353;-83
2023/11/02 01:25:45;;;;;;;;;;;;;;;;;;;;;
2023/11/02 01:32:07;;;;;;;25.50;15.70;;;;;;;8.07;100.00;99280.34;223379;1264;139450;-82
2023/11/02 01:44:19;;;;;;;;;;;;;;;;;;;;;
2023/11/02 01:50:23;;;;;;;21.80;13.30;;;;;;;7.85;100.00;99273.69;223248;1265;141155;-82
2023/11/02 01:56:28;;;;;;;20.50;12.70;;;;;;;7.77;100.00;99253.73;224010;1264;138790;-83
2023/11/02 02:02:35;;;;;;;22.80;12.70;;;;;;;7.69;100.00;99250.88;223486;1264;139319;-82
2023/11/02 02:08:36;;;;;;;22.10;12.40;;;;;;;7.61;100.00;99247.08;223332;1264;139906;-82
2023/11/02 02:14:51;;;;;;;25.60;12.10;;;;;;;7.56;100.00;99224.36;224025;1264;138952;-81
2023/11/02 02:20:57;;;;;;;19.80;10.70;;;;;;;7.50;100.00;99220.91;223330;1264;139433;-82
2023/11/02 02:33:17;;;;;;;19.30;10.60;;;;;;;7.39;100.00;99231.10;223865;1264;139062;-82
2023/11/02 02:39:13;;;;;;;;;;;;;;;;;;;;;
2023/11/02 02:45:14;;;;;;;;;;;;;;;;;;;;;
2023/11/02 02:57:09;;;;;;;15.50;8.90;;;;;;;7.25;100.00;99208.77;224084;1265;138286;-83
2023/11/02 03:03:06;;;;;;;15.50;8.80;;;;;;;7.24;100.00;99194.30;223928;1265;138246;-82
2023/11/02 03:08:58;;;;;;;;;;;;;;;;;;;;;
2023/11/02 03:14:54;;;;;;;14.10;8.60;;;;;;;7.25;100.00;99192.51;224036;1264;138780;-79
2023/11/02 03:27:01;;;;;;;;;;;;;;;;;;;;;
2023/11/02 03:33:07;;;;;;;;;;;;;;;;;;;;;
2023/11/02 03:39:13;;;;;;;;;;;;;;;;;;;;;
2023/11/02 03:45:20;;;;;;;18.00;8.50;;;;;;;7.21;100.00;99144.16;224088;1264;138698;-80
2023/11/02 03:51:31;;;;;;;17.50;8.70;;;;;;;7.22;100.00;99144.96;223519;1264;139176;-79
2023/11/02 04:03:29;;;;;;;15.60;7.90;;;;;;;7.26;100.00;99145.52;224101;1265;138459;-80
2023/11/02 04:09:30;;;;;;;15.40;8.40;;;;;;;7.27;100.00;99136.86;223577;1264;139666;-80
2023/11/02 04:15:39;;;;;;;14.50;7.30;;;;;;;7.29;100.00;99122.31;224278;1265;138511;-79
2023/11/02 04:21:08;;;;;;;14.40;7.90;;;;;;;7.30;100.00;99113.33;223505;1265;139240;-80
2023/11/02 04:27:10;;;;;;;19.00;7.90;;;;;;;7.31;100.00;99104.95;224086;1264;138665;-80
2023/11/02 04:33:11;;;;;;;15.50;8.10;;;;;;;7.32;100.00;99106.91;223716;1265;140230;-80
2023/11/02 04:38:56;;;;;;;;;;;;;;;;;;;;;
2023/11/02 04:44:55;;;;;;;;;;;;;;;;;;;;;
2023/11/02 04:50:55;;;;;;;;;;;;;;;;;;;;;
2023/11/02 04:56:58;;;;;;;16.90;9.10;;;;;;;7.27;100.00;99092.36;224121;1264;138312;-81
2023/11/02 05:02:58;;;;;;;16.60;8.90;;;;;;;7.25;100.00;99083.77;223438;1266;139029;-81
2023/11/02 05:09:02;;;;;;;15.40;7.40;;;;;;;7.27;100.00;99080.55;223555;1266;139384;-81
2023/11/02 05:14:41;;;;;;;17.40;9.10;;;;;;;7.29;100.00;99080.02;224060;1265;138186;-81
2023/11/02 05:20:42;;;;;;;14.80;9.50;;;;;;;7.34;100.00;99056.81;223402;1264;139549;-81
2023/11/02 05:26:25;;;;;;;17.40;8.80;;;;;;;7.39;100.00;99046.18;224079;1264;138639;-81
2023/11/02 05:32:27;;;;;;;19.30;9.40;;;;;;;7.44;100.00;99044.94;223507;1265;138896;-81
2023/11/02 05:44:22;;;;;;;;;;;;;;;;;;;;;
2023/11/02 05:50:24;;;;;;;23.60;12.60;;;;;;;7.51;100.00;99020.48;223532;1264;139154;-81
2023/11/02 05:56:15;;;;;;;;;;;;;;;;;;;;;
2023/11/02 06:02:17;;;;;;;26.20;13.40;;;;;;;7.55;100.00;99007.17;223512;1264;139519;-81
2023/11/02 06:14:11;;;;;;;;;;;;;;;;;;;;;
2023/11/02 06:20:13;;;;;;;24.20;14.30;;;;;;;7.60;100.00;98986.69;223552;1266;139865;-81
2023/11/02 06:26:00;;;;;;;26.50;13.90;;;;;;;7.60;100.00;98977.45;224083;1268;138470;-80
2023/11/02 06:38:02;;;;;;;24.80;13.00;;;;;;;7.59;100.00;98965.63;223638;1265;139147;-81
2023/11/02 06:43:51;;;;;;;;;;;;;;;;;;;;;
2023/11/02 06:49:42;;;;;;;;;;;;;;;;;;;;;
2023/11/02 06:55:52;;;;;;;20.00;10.70;;;;;;;7.66;100.00;98927.86;223941;1264;138723;-81
2023/11/02 07:01:53;;;;;;;22.70;11.10;;;;;;;7.76;100.00;98915.80;223512;1264;140153;-81
2023/11/02 07:07:55;;;;;;;23.60;12.10;;;;;;;7.87;100.00;98912.09;223809;1266;138293;-81
2023/11/02 07:13:56;;;;;;;21.00;12.20;;;;;;;8.02;100.00;98903.10;223785;1264;138242;-81
2023/11/02 07:19:49;;;;;;;;;;;;;;;;;;;;;
2023/11/02 07:25:43;;;;;;;;;;;;;;;;;;;;;
2023/11/02 07:31:52;;;;;;;21.50;11.20;;;;;;;8.52;100.00;98904.81;223303;1265;139540;-82
2023/11/02 07:37:53;;;;;;;19.50;10.80;;;;;;;8.67;100.00;98912.33;223868;1264;138429;-81
2023/11/02 07:43:54;;;;;;;20.50;10.50;;;;;;;8.82;100.00;98907.15;223881;1265;138727;-82
2023/11/02 07:49:48;;;;;;;18.60;10.00;;;;;;;8.94;100.00;98903.54;223534;1264;139745;-82
2023/11/02 07:55:50;;;;;;;18.90;10.70;;;;;;;9.06;100.00;98884.88;223969;1265;138269;-82
2023/11/02 08:01:51;;;;;;;18.50;11.20;;;;;;;9.18;100.00;98879.77;223393;1268;139401;-82
2023/11/02 08:07:45;;;;;;;19.90;10.80;;;;;;;9.33;100.00;98872.56;223930;1266;138267;-81
2023/11/02 08:13:46;;;;;;;21.10;10.40;;;;;;;9.54;100.00;98865.46;224055;1264;138961;-82
2023/11/02 08:19:47;;;;;;;19.00;10.30;;;;;;;9.78;100.00;98858.40;223417;1264;140038;-82
2023/11/02 08:31:49;;;;;;;19.40;10.70;;;;;;;10.37;100.00;98836.25;223358;1264;139620;-83
2023/11/02 08:37:50;;;;;;;19.50;9.10;;;;;;;10.67;100.00;98819.55;223822;1268;139384;-82
2023/11/02 08:43:47;;;;;;;15.60;9.80;;;;;;;11.17;100.00;98797.65;224023;1268;138429;-81
2023/11/02 08:49:46;;;;;;;17.40;9.70;;;;;;;11.79;100.00;98786.34;223599;1267;139603;-82
2023/11/02 08:55:47;;;;;;;15.10;8.80;;;;;;;12.21;100.00;98786.58;223883;1264;138551;-81
2023/11/02 09:01:38;;;;;;;15.60;8.60;;;;;;;12.52;100.00;98770.03;223326;1268;140181;-82
2023/11/02 09:07:39;;;;;;;13.10;7.60;;;;;;;12.69;100.00;98769.00;223981;1264;138492;-82
2023/11/02 09:13:40;;;;;;;14.50;7.70;;;;;;;12.97;100.00;98766.74;223855;1264;138425;-83
2023/11/02 09:19:41;;;;;;;18.90;9.00;;;;;;;13.22;100.00;98760.03;223433;1264;139583;-82
2023/11/02 09:25:40;;;;;;;;;;;;;;;;;;;;;
2023/11/02 09:31:50;;;;;;;17.40;8.70;;;;;;;13.75;100.00;98775.48;219409;1268;5397638;-83
2023/11/02 09:37:45;;;;;;;14.00;7.20;;;;;;;13.92;100.00;98767.88;223875;1264;139088;-82
2023/11/02 09:43:46;;;;;;;13.70;7.00;;;;;;;13.99;100.00;98744.93;224146;1264;139040;-82
2023/11/02 09:49:46;;;;;;;;;;;;;;;;;;;;;
2023/11/02 09:55:48;;;;;;;13.40;6.40;;;;;;;14.02;100.00;98721.28;223990;1264;139392;-83
2023/11/02 10:01:50;;;;;;;12.60;6.60;;;;;;;14.14;100.00;98709.13;223396;1264;139825;-83
2023/11/02 10:07:51;;;;;;;16.40;7.10;;;;;;;14.28;100.00;98698.05;223868;1264;138651;-83
2023/11/02 10:13:53;;;;;;;16.90;6.90;;;;;;;14.40;100.00;98680.05;223758;1264;138432;-83
2023/11/02 10:19:53;;;;;;;12.70;7.10;;;;;;;14.27;100.00;98653.75;223400;1264;139840;-82
2023/11/02 10:25:54;;;;;;;11.70;6.30;;;;;;;14.28;100.00;98615.68;223792;1264;138461;-83
2023/11/02 10:31:58;;;;;;;13.70;6.00;;;;;;;14.32;100.00;98593.73;223296;1264;139981;-83
2023/11/02 10:38:14;;;;;;;11.20;6.10;;;;;;;14.37;100.00;98593.17;223845;1264;138523;-83
2023/11/02 10:44:12;;;;;;;15.80;6.00;;;;;;;14.33;100.00;98580.25;223909;1264;138541;-82
2023/11/02 10:50:03;;;;;;;12.50;6.10;;;;;;;14.31;100.00;98570.76;223462;1264;139774;-82
2023/11/02 10:56:20;;;;;;;12.50;5.60;;;;;;;14.35;100.00;98561.61;223983;1264;138608;-83
2023/11/02 11:02:21;;;;;;;17.20;6.10;;;;;;;14.24;100.00;98565.47;223421;1264;139762;-83
2023/11/02 11:08:22;;;;;;;14.10;6.30;;;;;;;14.18;100.00;98557.65;223419;1264;139602;-82
2023/11/02 11:14:23;;;;;;;15.40;6.20;;;;;;;14.28;100.00;98556.93;223868;1264;138380;-82
2023/11/02 11:20:25;;;;;;;13.50;6.90;;;;;;;14.34;100.00;98534.12;223411;1264;139652;-83
2023/11/02 11:26:35;;;;;;;;;;;;;;;;;;;;;
2023/11/02 11:32:48;;;;;;;14.80;6.30;;;;;;;14.14;99.63;98508.14;223150;1264;139736;-82
2023/11/02 11:38:45;;;;;;;13.50;6.70;;;;;;;14.03;100.00;98499.73;222995;1264;139461;-83
2023/11/02 11:45:04;;;;;;;17.70;7.80;;;;;;;14.03;100.00;98498.48;223947;1264;139014;-82
2023/11/02 11:51:11;;;;;;;11.20;6.30;;;;;;;14.14;99.82;98506.50;223451;1264;139872;-81
2023/11/02 11:57:13;;;;;;;15.40;7.30;;;;;;;14.15;100.00;98503.53;223874;1264;138564;-81
2023/11/02 12:03:36;;;;;;;15.50;6.90;;;;;;;14.18;99.93;98482.02;223712;1264;247320;-81
2023/11/02 12:09:19;;;;;;;24.90;6.70;;;;;;;14.18;99.97;98474.11;223399;1264;139484;-81
2023/11/02 12:15:32;;;;;;;15.70;7.10;;;;;;;14.11;100.00;98462.71;223767;1264;138334;-82
2023/11/02 12:21:23;;;;;;;;;;;;;;;;;;;;;
2023/11/02 12:33:12;;;;;;;11.70;6.60;;;;;;;14.10;100.00;98436.76;223533;1264;139643;-82
2023/11/02 12:39:05;;;;;;;;;;;;;;;;;;;;;
2023/11/02 12:45:09;;;;;;;;;;;;;;;;;;;;;
2023/11/02 12:51:00;;;;;;;11.70;6.50;;;;;;;14.11;100.00;98423.63;223393;1264;140510;-82
2023/11/02 12:57:01;;;;;;;14.20;6.80;;;;;;;14.17;100.00;98419.21;223876;1264;139053;-81
2023/11/02 13:02:58;;;;;;;12.10;6.00;;;;;;;14.26;100.00;98424.08;223457;1264;139468;-82
2023/11/02 13:08:58;;;;;;;13.60;6.70;;;;;;;14.33;100.00;98428.13;223416;1264;139897;-82
2023/11/02 13:14:49;;;;;;;14.00;7.20;;;;;;;14.40;99.91;98405.36;223941;1264;138836;-82
2023/11/02 13:20:51;;;;;;;14.70;6.40;;;;;;;14.45;99.23;98410.88;223266;1264;141056;-82
2023/11/02 13:26:50;;;;;;;;;;;;;;;;;;;;;
2023/11/02 13:32:44;;;;;;;;;;;;;;;;;;;;;
2023/11/02 13:38:53;;;;;;;12.70;5.80;;;;;;;14.47;97.56;98390.41;223423;1264;139505;-81
2023/11/02 13:44:47;;;;;;;11.50;5.70;;;;;;;14.39;97.77;98376.30;223836;1264;138455;-82
2023/11/02 13:50:47;;;;;;;11.70;6.10;;;;;;;14.35;99.04;98365.55;223398;1264;139984;-82
2023/11/02 13:56:21;;;;;;;;;;;;;;;;;;;;;
2023/11/02 14:02:23;;;;;;;10.10;5.20;;;;;;;14.19;99.46;98361.13;223258;1264;139110;-82
2023/11/02 14:08:24;;;;;;;10.30;5.90;;;;;;;14.12;99.94;98349.59;223370;1264;139783;-83
2023/11/02 14:14:07;;;;;;;;;;;;;;;;;;;;;
2023/11/02 14:20:09;;;;;;;9.60;5.10;;;;;;;13.98;100.00;98307.55;223390;1264;140753;-82
2023/11/02 14:26:11;;;;;;;9.70;5.00;;;;;;;13.89;100.00;98293.16;223933;1264;139035;-82
2023/11/02 14:32:13;;;;;;;10.60;5.70;;;;;;;13.81;100.00;98279.00;223213;1264;140856;-82
2023/11/02 14:38:12;;;;;;;;;;;;;;;;;;;;;
2023/11/02 14:44:13;;;;;;;12.10;6.30;;;;;;;13.66;100.00;98239.52;223906;1264;138775;-82
2023/11/02 14:50:08;;;;;;;13.70;6.00;;;;;;;13.57;100.00;98222.92;223382;1264;139767;-83
2023/11/02 14:56:09;;;;;;;13.60;5.80;;;;;;;13.49;100.00;98224.80;224011;1264;138756;-82
2023/11/02 15:02:08;;;;;;;;;;;;;;;;;;;;;
2023/11/02 15:08:10;;;;;;;13.10;5.70;;;;;;;13.33;100.00;98216.99;223261;1264;139605;-82
2023/11/02 15:14:11;;;;;;;11.10;6.20;;;;;;;13.26;100.00;98221.36;223922;1264;138922;-82
2023/11/02 15:20:15;;;;;;;11.50;5.40;;;;;;;13.18;100.00;98234.33;223408;1265;139673;-83
2023/11/02 15:25:57;;;;;;;;;;;;;;;;;;;;;
2023/11/02 15:31:49;;;;;;;13.40;6.90;;;;;;;13.07;100.00;98247.82;223409;1264;139649;-82
2023/11/02 15:37:50;;;;;;;15.00;6.40;;;;;;;13.03;100.00;98252.39;223769;1264;138745;-83
2023/11/02 15:43:51;;;;;;;;;;;;;;;;;;;;;
2023/11/02 15:49:55;;;;;;;13.40;5.70;;;;;;;12.91;100.00;98215.11;223334;1264;140406;-83
2023/11/02 15:55:54;;;;;;;12.10;5.70;;;;;;;12.84;100.00;98212.73;223800;1265;139188;-84
2023/11/02 16:01:56;;;;;;;9.90;5.50;;;;;;;12.78;100.00;98206.95;223261;1264;139708;-83
2023/11/02 16:07:54;;;;;;;;;;;;;;;;;;;;;
2023/11/02 16:14:02;;;;;;;17.30;7.00;;;;;;;12.69;100.00;98203.08;223846;1264;138669;-83
2023/11/02 16:19:34;;;;;;;;;;;;;;;;;;;;;
2023/11/02 16:25:30;;;;;;;13.70;6.10;;;;;;;12.62;100.00;98185.95;223953;1265;139084;-82
2023/11/02 16:31:06;;;;;;;;;;;;;;;;;;;;;
2023/11/02 16:36:53;;;;;;;13.10;5.70;;;;;;;12.57;100.00;98173.84;223939;1264;138694;-82
2023/11/02 16:42:53;;;;;;;16.90;6.50;;;;;;;12.53;100.00;98172.77;223449;1264;139518;-82
2023/11/02 16:48:22;;;;;;;;;;;;;;;;;;;;;
2023/11/02 16:54:13;;;;;;;;;;;;;;;;;;;;;
2023/11/02 17:00:17;;;;;;;17.20;7.30;;;;;;;12.38;100.00;98167.77;223334;1264;139991;-83
2023/11/02 17:06:17;;;;;;;17.20;8.30;;;;;;;12.33;100.00;98151.87;223935;1264;139254;-83
2023/11/02 17:12:18;;;;;;;18.50;10.10;;;;;;;12.27;100.00;98130.38;223509;1264;140891;-83
2023/11/02 17:18:09;;;;;;;;;;;;;;;;;;;;;
2023/11/02 17:23:54;;;;;;;18.70;9.80;;;;;;;12.16;100.00;98118.45;224065;1264;94549;-83
2023/11/02 17:29:56;;;;;;;19.00;10.90;;;;;;;12.11;100.00;98112.40;223556;1264;139500;-83
2023/11/02 17:35:57;;;;;;;22.30;10.10;;;;;;;12.05;100.00;98104.31;224071;1264;94695;-82
2023/11/02 17:41:58;;;;;;;15.70;7.30;;;;;;;12.01;100.00;98102.70;223521;1264;139801;-82
2023/11/02 17:47:49;;;;;;;16.80;7.50;;;;;;;11.99;100.00;98098.81;224083;1264;94571;-82
2023/11/02 17:53:42;;;;;;;16.50;6.90;;;;;;;11.99;100.00;98099.46;224121;1264;94655;-82
2023/11/02 17:59:35;;;;;;;;;;;;;;;;;;;;;
2023/11/02 18:05:35;;;;;;;;;;;;;;;;;;;;;
2023/11/02 18:11:37;;;;;;;21.60;8.70;;;;;;;12.06;100.00;98093.10;223599;1264;139441;-83
2023/11/02 18:17:38;;;;;;;19.10;8.10;;;;;;;12.06;100.00;98090.41;223851;1264;138797;-83
2023/11/02 18:29:32;;;;;;;;;;;;;;;;;;;;;
2023/11/02 18:35:26;;;;;;;;;;;;;;;;;;;;;
2023/11/02 18:41:31;;;;;;;18.60;8.70;;;;;;;12.08;100.00;98085.01;223324;1266;139446;-84
2023/11/02 18:47:08;;;;;;;;;;;;;;;;;;;;;
2023/11/02 18:59:01;;;;;;;;;;;;;;;;;;;;;
2023/11/02 19:05:05;;;;;;;17.20;7.40;;;;;;;12.11;100.00;98082.39;224181;1264;138889;-83
2023/11/02 19:11:01;;;;;;;;;;;;;;;;;;;;;
2023/11/02 19:16:58;;;;;;;;;;;;;;;;;;;;;
2023/11/02 19:23:00;;;;;;;19.00;7.90;;;;;;;12.03;100.00;98076.17;223279;1264;142704;-83
2023/11/02 19:41:05;;;;;;;21.20;9.20;;;;;;;12.11;100.00;98060.95;223453;1264;139839;-82
2023/11/02 19:47:06;;;;;;;19.30;9.70;;;;;;;12.13;100.00;98058.60;223884;1264;138592;-83
2023/11/02 19:53:07;;;;;;;28.90;15.40;;;;;;;12.14;100.00;98047.30;223609;1264;138875;-83
2023/11/02 19:59:08;;;;;;;22.90;11.50;;;;;;;12.15;100.00;98051.13;223499;1264;140295;-83
2023/11/02 20:05:01;;;;;;;;;;;;;;;;;;;;;
2023/11/02 20:11:01;;;;;;;;;;;;;;;;;;;;;
2023/11/02 20:16:56;;;;;;;20.60;9.60;;;;;;;12.17;100.00;98041.13;223878;1266;138373;-82
2023/11/02 20:22:57;;;;;;;19.70;11.20;;;;;;;12.17;100.00;98035.23;223551;1264;140244;-83
2023/11/02 20:28:52;;;;;;;22.10;11.20;;;;;;;12.17;100.00;98022.65;223501;1266;140300;-83
2023/11/02 20:34:53;;;;;;;19.40;10.30;;;;;;;12.16;100.00;98013.20;223906;1264;138584;-83
2023/11/02 20:40:53;;;;;;;;;;;;;;;;;;;;;
2023/11/02 20:46:55;;;;;;;20.40;10.90;;;;;;;12.13;100.00;98001.00;223902;1265;138534;-83
2023/11/02 20:53:02;;;;;;;19.10;9.60;;;;;;;12.12;100.00;97990.44;223456;1264;139601;-83
2023/11/02 20:59:03;;;;;;;20.90;11.90;;;;;;;12.10;100.00;97984.27;223313;1266;140150;-83
2023/11/02 21:05:04;;;;;;;31.20;17.30;;;;;;;12.09;100.00;97984.52;223580;1268;140085;-83
2023/11/02 21:10:58;;;;;;;23.50;11.50;;;;;;;12.06;100.00;97977.08;223309;1265;140214;-83
2023/11/02 21:16:48;;;;;;;19.20;10.40;;;;;;;12.04;100.00;97974.61;223891;1268;139405;-83
2023/11/02 21:22:50;;;;;;;19.80;9.90;;;;;;;12.04;100.00;97974.77;223155;1264;140018;-83
2023/11/02 21:28:51;;;;;;;28.30;9.60;;;;;;;12.06;100.00;97972.21;219550;1266;5183332;-83
2023/11/02 21:34:51;;;;;;;19.50;8.70;;;;;;;12.08;100.00;97975.53;223843;1264;138658;-82
2023/11/02 21:40:53;;;;;;;16.40;8.60;;;;;;;12.08;100.00;97968.34;223313;1264;140266;-83
2023/11/02 21:46:48;;;;;;;19.70;9.00;;;;;;;12.09;100.00;97971.30;223809;1265;139110;-81
2023/11/02 21:52:42;;;;;;;16.90;8.50;;;;;;;12.11;100.00;97972.56;223345;1266;139885;-81
2023/11/02 21:58:43;;;;;;;17.30;8.80;;;;;;;12.12;100.00;97969.95;223374;1265;140206;-81
2023/11/02 22:04:36;;;;;;;;;;;;;;;;;;;;;
2023/11/02 22:10:36;;;;;;;;;;;;;;;;;;;;;
2023/11/02 22:22:14;;;;;;;;;;;;;;;;;;;;;
2023/11/02 22:27:59;;;;;;;16.00;8.40;;;;;;;12.19;100.00;97937.70;223459;1266;140744;-81
2023/11/02 22:34:00;;;;;;;16.30;8.10;;;;;;;12.20;100.00;97934.05;224040;1264;138692;-81
2023/11/02 22:40:04;;;;;;;19.60;8.80;;;;;;;12.21;100.00;97935.45;223528;1265;139964;-81
2023/11/02 22:46:04;;;;;;;19.60;9.90;;;;;;;12.15;100.00;97934.14;224113;1265;137907;-81
2023/11/02 22:57:35;;;;;;;;;;;;;;;;;;;;;
2023/11/02 23:03:15;;;;;;;18.70;9.20;;;;;;;11.87;100.00;97904.48;223921;1264;138611;-83
2023/11/02 23:09:16;;;;;;;18.20;8.80;;;;;;;11.83;100.00;97910.93;223487;1264;139430;-82
2023/11/02 23:15:01;;;;;;;18.20;8.60;;;;;;;11.78;100.00;97905.90;223927;1264;139276;-82
2023/11/02 23:20:59;;;;;;;19.80;8.40;;;;;;;11.75;100.00;97889.25;223465;1264;140019;-82
2023/11/02 23:26:50;;;;;;;16.20;8.30;;;;;;;11.75;100.00;97889.42;224013;1267;139229;-83
2023/11/02 23:32:49;;;;;;;;;;;;;;;;;;;;;
2023/11/02 23:38:51;;;;;;;16.40;8.10;;;;;;;11.71;100.00;97874.45;223532;1266;140110;-83
2023/11/02 23:44:43;;;;;;;16.60;7.70;;;;;;;11.69;100.00;97863.80;224007;1266;139231;-83
2023/11/02 23:50:45;;;;;;;15.30;6.70;;;;;;;11.69;100.00;97849.94;223476;1264;141016;-83
2023/11/02 23:56:46;;;;;;;15.80;7.80;;;;;;;11.72;100.00;97853.78;224001;1264;139412;-83
